sensor_id;sensor_type;location;lat;lon;timestamp;P1;durP1;ratioP1;P2;durP2;ratioP2
29848;SDS011;16728;50.832;5.590;2023-07-13T00:00:50;10.45;;;1.58;;
29848;SDS011;16728;50.832;5.590;2023-07-13T00:03:52;4.63;;;1.30;;
29848;SDS011;16728;50.832;5.590;2023-07-13T00:06:54;4.43;;;1.43;;
29848;SDS011;16728;50.832;5.590;2023-07-13T00:09:56;2.50;;;1.20;;
29848;SDS011;16728;50.832;5.590;2023-07-13T00:13:00;5.45;;;1.33;;
29848;SDS011;16728;50.832;5.590;2023-07-13T00:16:02;3.08;;;1.20;;
29848;SDS011;16728;50.832;5.590;2023-07-13T00:19:05;6.88;;;1.40;;
29848;SDS011;16728;50.832;5.590;2023-07-13T00:22:07;3.87;;;0.93;;
29848;SDS011;16728;50.832;5.590;2023-07-13T00:25:12;7.45;;;1.20;;
29848;SDS011;16728;50.832;5.590;2023-07-13T00:28:18;4.35;;;1.10;;
29848;SDS011;16728;50.832;5.590;2023-07-13T00:31:20;4.10;;;1.25;;
29848;SDS011;16728;50.832;5.590;2023-07-13T00:34:22;3.35;;;1.00;;
29848;SDS011;16728;50.832;5.590;2023-07-13T00:37:25;4.80;;;1.27;;
29848;SDS011;16728;50.832;5.590;2023-07-13T00:40:27;4.47;;;1.20;;
29848;SDS011;16728;50.832;5.590;2023-07-13T00:43:29;4.25;;;1.10;;
29848;SDS011;16728;50.832;5.590;2023-07-13T00:46:32;3.15;;;1.17;;
29848;SDS011;16728;50.832;5.590;2023-07-13T00:49:36;7.88;;;1.25;;
29848;SDS011;16728;50.832;5.590;2023-07-13T00:52:39;7.53;;;1.67;;
29848;SDS011;16728;50.832;5.590;2023-07-13T00:55:44;5.57;;;1.45;;
29848;SDS011;16728;50.832;5.590;2023-07-13T00:58:47;3.95;;;1.35;;
29848;SDS011;16728;50.832;5.590;2023-07-13T01:01:49;5.43;;;1.33;;
29848;SDS011;16728;50.832;5.590;2023-07-13T01:04:52;4.83;;;1.30;;
29848;SDS011;16728;50.832;5.590;2023-07-13T01:07:54;4.82;;;1.33;;
29848;SDS011;16728;50.832;5.590;2023-07-13T01:10:57;7.45;;;2.17;;
29848;SDS011;16728;50.832;5.590;2023-07-13T01:13:59;2.35;;;1.08;;
29848;SDS011;16728;50.832;5.590;2023-07-13T01:17:02;6.95;;;1.50;;
29848;SDS011;16728;50.832;5.590;2023-07-13T01:20:05;5.13;;;1.63;;
29848;SDS011;16728;50.832;5.590;2023-07-13T01:23:11;6.40;;;1.15;;
29848;SDS011;16728;50.832;5.590;2023-07-13T01:26:14;7.60;;;1.63;;
29848;SDS011;16728;50.832;5.590;2023-07-13T01:29:16;6.63;;;2.03;;
29848;SDS011;16728;50.832;5.590;2023-07-13T01:32:19;4.45;;;1.60;;
29848;SDS011;16728;50.832;5.590;2023-07-13T01:35:26;4.05;;;1.30;;
29848;SDS011;16728;50.832;5.590;2023-07-13T01:38:28;5.20;;;1.30;;
29848;SDS011;16728;50.832;5.590;2023-07-13T01:41:30;6.40;;;1.55;;
29848;SDS011;16728;50.832;5.590;2023-07-13T01:44:33;7.38;;;1.52;;
29848;SDS011;16728;50.832;5.590;2023-07-13T01:47:35;11.02;;;1.55;;
29848;SDS011;16728;50.832;5.590;2023-07-13T01:50:37;5.43;;;1.67;;
29848;SDS011;16728;50.832;5.590;2023-07-13T01:53:41;5.22;;;1.55;;
29848;SDS011;16728;50.832;5.590;2023-07-13T01:56:43;5.32;;;1.50;;
29848;SDS011;16728;50.832;5.590;2023-07-13T01:59:45;3.60;;;1.40;;
29848;SDS011;16728;50.832;5.590;2023-07-13T02:02:50;6.90;;;1.65;;
29848;SDS011;16728;50.832;5.590;2023-07-13T02:05:53;11.23;;;2.00;;
29848;SDS011;16728;50.832;5.590;2023-07-13T02:08:55;8.45;;;1.90;;
29848;SDS011;16728;50.832;5.590;2023-07-13T02:11:56;6.90;;;1.52;;
29848;SDS011;16728;50.832;5.590;2023-07-13T02:14:58;3.80;;;1.40;;
29848;SDS011;16728;50.832;5.590;2023-07-13T02:18:01;7.50;;;1.73;;
29848;SDS011;16728;50.832;5.590;2023-07-13T02:21:05;5.15;;;1.48;;
29848;SDS011;16728;50.832;5.590;2023-07-13T02:24:07;6.47;;;1.60;;
29848;SDS011;16728;50.832;5.590;2023-07-13T02:27:09;5.47;;;1.63;;
29848;SDS011;16728;50.832;5.590;2023-07-13T02:30:11;5.07;;;1.65;;
29848;SDS011;16728;50.832;5.590;2023-07-13T02:33:13;5.13;;;1.52;;
29848;SDS011;16728;50.832;5.590;2023-07-13T02:36:15;4.60;;;2.00;;
29848;SDS011;16728;50.832;5.590;2023-07-13T02:39:18;8.07;;;1.75;;
29848;SDS011;16728;50.832;5.590;2023-07-13T02:42:20;7.38;;;1.92;;
29848;SDS011;16728;50.832;5.590;2023-07-13T02:45:22;6.07;;;1.58;;
29848;SDS011;16728;50.832;5.590;2023-07-13T02:48:24;8.57;;;1.75;;
29848;SDS011;16728;50.832;5.590;2023-07-13T02:51:26;8.50;;;1.98;;
29848;SDS011;16728;50.832;5.590;2023-07-13T02:54:28;4.07;;;1.80;;
29848;SDS011;16728;50.832;5.590;2023-07-13T02:57:30;9.02;;;2.20;;
29848;SDS011;16728;50.832;5.590;2023-07-13T03:00:34;5.43;;;1.80;;
29848;SDS011;16728;50.832;5.590;2023-07-13T03:03:42;4.53;;;1.67;;
29848;SDS011;16728;50.832;5.590;2023-07-13T03:06:44;9.38;;;2.28;;
29848;SDS011;16728;50.832;5.590;2023-07-13T03:09:47;5.40;;;2.20;;
29848;SDS011;16728;50.832;5.590;2023-07-13T03:12:49;8.57;;;2.17;;
29848;SDS011;16728;50.832;5.590;2023-07-13T03:15:52;7.63;;;2.27;;
29848;SDS011;16728;50.832;5.590;2023-07-13T03:18:53;6.80;;;2.15;;
29848;SDS011;16728;50.832;5.590;2023-07-13T03:21:55;5.63;;;2.05;;
29848;SDS011;16728;50.832;5.590;2023-07-13T03:24:58;9.35;;;2.22;;
29848;SDS011;16728;50.832;5.590;2023-07-13T03:28:00;5.43;;;1.92;;
29848;SDS011;16728;50.832;5.590;2023-07-13T03:31:06;13.38;;;2.55;;
29848;SDS011;16728;50.832;5.590;2023-07-13T03:34:10;8.27;;;2.10;;
29848;SDS011;16728;50.832;5.590;2023-07-13T03:37:12;8.75;;;2.50;;
29848;SDS011;16728;50.832;5.590;2023-07-13T03:40:14;6.90;;;2.38;;
29848;SDS011;16728;50.832;5.590;2023-07-13T03:43:16;7.10;;;2.20;;
29848;SDS011;16728;50.832;5.590;2023-07-13T03:46:18;7.38;;;2.17;;
29848;SDS011;16728;50.832;5.590;2023-07-13T03:49:21;7.60;;;2.50;;
29848;SDS011;16728;50.832;5.590;2023-07-13T03:52:32;10.38;;;2.33;;
29848;SDS011;16728;50.832;5.590;2023-07-13T03:55:34;5.13;;;2.40;;
29848;SDS011;16728;50.832;5.590;2023-07-13T03:58:37;8.15;;;2.30;;
29848;SDS011;16728;50.832;5.590;2023-07-13T04:01:41;6.85;;;2.00;;
29848;SDS011;16728;50.832;5.590;2023-07-13T04:04:50;13.98;;;2.00;;
29848;SDS011;16728;50.832;5.590;2023-07-13T04:07:52;7.40;;;2.17;;
29848;SDS011;16728;50.832;5.590;2023-07-13T04:10:54;9.07;;;2.15;;
29848;SDS011;16728;50.832;5.590;2023-07-13T04:13:57;7.87;;;2.00;;
29848;SDS011;16728;50.832;5.590;2023-07-13T04:16:58;5.38;;;2.00;;
29848;SDS011;16728;50.832;5.590;2023-07-13T04:20:01;5.90;;;2.03;;
29848;SDS011;16728;50.832;5.590;2023-07-13T04:23:03;6.07;;;1.88;;
29848;SDS011;16728;50.832;5.590;2023-07-13T04:26:05;8.70;;;2.03;;
29848;SDS011;16728;50.832;5.590;2023-07-13T04:29:07;9.85;;;2.33;;
29848;SDS011;16728;50.832;5.590;2023-07-13T04:32:09;10.35;;;2.05;;
29848;SDS011;16728;50.832;5.590;2023-07-13T04:35:11;7.95;;;2.40;;
29848;SDS011;16728;50.832;5.590;2023-07-13T04:38:15;5.50;;;2.15;;
29848;SDS011;16728;50.832;5.590;2023-07-13T04:41:17;7.10;;;2.65;;
29848;SDS011;16728;50.832;5.590;2023-07-13T04:44:20;6.13;;;1.87;;
29848;SDS011;16728;50.832;5.590;2023-07-13T04:47:22;7.95;;;2.38;;
29848;SDS011;16728;50.832;5.590;2023-07-13T04:50:24;12.00;;;2.47;;
29848;SDS011;16728;50.832;5.590;2023-07-13T04:53:26;7.63;;;2.15;;
29848;SDS011;16728;50.832;5.590;2023-07-13T04:56:28;6.05;;;2.22;;
29848;SDS011;16728;50.832;5.590;2023-07-13T04:59:34;11.82;;;2.15;;
29848;SDS011;16728;50.832;5.590;2023-07-13T05:02:37;8.43;;;2.55;;
29848;SDS011;16728;50.832;5.590;2023-07-13T05:08:42;6.22;;;1.58;;
29848;SDS011;16728;50.832;5.590;2023-07-13T05:11:44;10.35;;;2.42;;
29848;SDS011;16728;50.832;5.590;2023-07-13T05:14:46;10.23;;;1.95;;
29848;SDS011;16728;50.832;5.590;2023-07-13T05:17:50;8.98;;;2.60;;
29848;SDS011;16728;50.832;5.590;2023-07-13T05:21:00;7.10;;;2.05;;
29848;SDS011;16728;50.832;5.590;2023-07-13T05:24:07;9.55;;;2.15;;
29848;SDS011;16728;50.832;5.590;2023-07-13T05:27:25;9.45;;;2.63;;
29848;SDS011;16728;50.832;5.590;2023-07-13T05:30:27;8.97;;;2.70;;
29848;SDS011;16728;50.832;5.590;2023-07-13T05:33:29;9.65;;;2.20;;
29848;SDS011;16728;50.832;5.590;2023-07-13T05:36:31;5.28;;;1.75;;
29848;SDS011;16728;50.832;5.590;2023-07-13T05:39:33;7.90;;;2.53;;
29848;SDS011;16728;50.832;5.590;2023-07-13T05:42:35;13.60;;;2.53;;
29848;SDS011;16728;50.832;5.590;2023-07-13T05:45:37;8.38;;;2.50;;
29848;SDS011;16728;50.832;5.590;2023-07-13T05:48:40;9.60;;;2.63;;
29848;SDS011;16728;50.832;5.590;2023-07-13T05:51:43;16.23;;;3.13;;
29848;SDS011;16728;50.832;5.590;2023-07-13T05:54:45;9.18;;;2.08;;
29848;SDS011;16728;50.832;5.590;2023-07-13T05:57:47;7.78;;;2.40;;
29848;SDS011;16728;50.832;5.590;2023-07-13T06:00:58;11.63;;;3.10;;
29848;SDS011;16728;50.832;5.590;2023-07-13T06:04:01;7.88;;;2.60;;
29848;SDS011;16728;50.832;5.590;2023-07-13T06:07:04;9.75;;;2.35;;
29848;SDS011;16728;50.832;5.590;2023-07-13T06:10:06;9.52;;;2.50;;
29848;SDS011;16728;50.832;5.590;2023-07-13T06:13:08;15.65;;;2.58;;
29848;SDS011;16728;50.832;5.590;2023-07-13T06:16:10;9.25;;;2.58;;
29848;SDS011;16728;50.832;5.590;2023-07-13T06:19:14;7.93;;;2.22;;
29848;SDS011;16728;50.832;5.590;2023-07-13T06:22:16;12.57;;;2.70;;
29848;SDS011;16728;50.832;5.590;2023-07-13T06:25:18;7.82;;;3.00;;
29848;SDS011;16728;50.832;5.590;2023-07-13T06:28:20;9.48;;;2.55;;
29848;SDS011;16728;50.832;5.590;2023-07-13T06:31:22;11.55;;;3.05;;
29848;SDS011;16728;50.832;5.590;2023-07-13T06:34:24;11.90;;;2.90;;
29848;SDS011;16728;50.832;5.590;2023-07-13T06:37:26;9.63;;;2.67;;
29848;SDS011;16728;50.832;5.590;2023-07-13T06:40:28;11.07;;;2.85;;
29848;SDS011;16728;50.832;5.590;2023-07-13T06:43:31;13.77;;;2.67;;
29848;SDS011;16728;50.832;5.590;2023-07-13T06:46:34;10.38;;;2.97;;
29848;SDS011;16728;50.832;5.590;2023-07-13T06:49:39;12.02;;;3.13;;
29848;SDS011;16728;50.832;5.590;2023-07-13T06:52:41;9.23;;;3.28;;
29848;SDS011;16728;50.832;5.590;2023-07-13T06:55:46;8.15;;;2.75;;
29848;SDS011;16728;50.832;5.590;2023-07-13T07:02:00;7.45;;;2.55;;
29848;SDS011;16728;50.832;5.590;2023-07-13T07:05:02;9.13;;;2.30;;
29848;SDS011;16728;50.832;5.590;2023-07-13T07:08:04;10.45;;;2.80;;
29848;SDS011;16728;50.832;5.590;2023-07-13T07:11:08;13.60;;;3.05;;
29848;SDS011;16728;50.832;5.590;2023-07-13T07:14:13;8.93;;;2.45;;
29848;SDS011;16728;50.832;5.590;2023-07-13T07:17:15;12.48;;;2.80;;
29848;SDS011;16728;50.832;5.590;2023-07-13T07:20:20;11.65;;;2.55;;
29848;SDS011;16728;50.832;5.590;2023-07-13T07:31:21;9.13;;;2.60;;
29848;SDS011;16728;50.832;5.590;2023-07-13T07:34:36;14.60;;;2.90;;
29848;SDS011;16728;50.832;5.590;2023-07-13T07:41:04;12.60;;;2.85;;
29848;SDS011;16728;50.832;5.590;2023-07-13T07:44:09;13.70;;;3.15;;
29848;SDS011;16728;50.832;5.590;2023-07-13T07:47:11;12.23;;;3.15;;
29848;SDS011;16728;50.832;5.590;2023-07-13T07:50:13;8.55;;;2.70;;
29848;SDS011;16728;50.832;5.590;2023-07-13T07:53:15;15.32;;;3.08;;
29848;SDS011;16728;50.832;5.590;2023-07-13T07:56:17;7.93;;;2.67;;
29848;SDS011;16728;50.832;5.590;2023-07-13T07:59:22;7.00;;;2.50;;
29848;SDS011;16728;50.832;5.590;2023-07-13T08:02:27;12.25;;;2.95;;
29848;SDS011;16728;50.832;5.590;2023-07-13T08:05:35;12.55;;;2.65;;
29848;SDS011;16728;50.832;5.590;2023-07-13T08:09:05;7.75;;;2.50;;
29848;SDS011;16728;50.832;5.590;2023-07-13T08:12:10;7.28;;;2.10;;
29848;SDS011;16728;50.832;5.590;2023-07-13T08:15:15;12.90;;;2.83;;
29848;SDS011;16728;50.832;5.590;2023-07-13T08:18:21;10.27;;;3.13;;
29848;SDS011;16728;50.832;5.590;2023-07-13T08:21:23;8.00;;;2.50;;
29848;SDS011;16728;50.832;5.590;2023-07-13T08:24:25;9.63;;;2.83;;
29848;SDS011;16728;50.832;5.590;2023-07-13T08:27:28;9.32;;;2.78;;
29848;SDS011;16728;50.832;5.590;2023-07-13T08:30:30;12.80;;;3.20;;
29848;SDS011;16728;50.832;5.590;2023-07-13T08:33:33;9.90;;;2.60;;
29848;SDS011;16728;50.832;5.590;2023-07-13T08:36:36;10.25;;;2.97;;
29848;SDS011;16728;50.832;5.590;2023-07-13T08:39:38;8.40;;;2.60;;
29848;SDS011;16728;50.832;5.590;2023-07-13T08:42:44;8.65;;;2.55;;
29848;SDS011;16728;50.832;5.590;2023-07-13T08:45:55;13.15;;;3.00;;
29848;SDS011;16728;50.832;5.590;2023-07-13T08:49:10;10.95;;;3.25;;
29848;SDS011;16728;50.832;5.590;2023-07-13T08:52:19;13.27;;;2.75;;
29848;SDS011;16728;50.832;5.590;2023-07-13T08:55:42;10.90;;;2.80;;
29848;SDS011;16728;50.832;5.590;2023-07-13T08:58:46;10.57;;;2.85;;
29848;SDS011;16728;50.832;5.590;2023-07-13T09:05:31;9.48;;;2.28;;
29848;SDS011;16728;50.832;5.590;2023-07-13T09:08:52;8.32;;;2.20;;
29848;SDS011;16728;50.832;5.590;2023-07-13T09:15:21;10.07;;;2.63;;
29848;SDS011;16728;50.832;5.590;2023-07-13T09:21:36;7.60;;;2.60;;
29848;SDS011;16728;50.832;5.590;2023-07-13T09:24:49;12.75;;;2.40;;
29848;SDS011;16728;50.832;5.590;2023-07-13T09:27:56;7.77;;;2.37;;
29848;SDS011;16728;50.832;5.590;2023-07-13T09:31:23;12.38;;;2.25;;
29848;SDS011;16728;50.832;5.590;2023-07-13T09:34:45;8.45;;;2.85;;
29848;SDS011;16728;50.832;5.590;2023-07-13T09:38:01;8.52;;;2.20;;
29848;SDS011;16728;50.832;5.590;2023-07-13T09:41:29;7.85;;;1.83;;
29848;SDS011;16728;50.832;5.590;2023-07-13T09:44:59;12.50;;;2.13;;
29848;SDS011;16728;50.832;5.590;2023-07-13T09:48:12;6.43;;;2.47;;
29848;SDS011;16728;50.832;5.590;2023-07-13T09:51:15;9.63;;;2.53;;
29848;SDS011;16728;50.832;5.590;2023-07-13T09:54:21;10.50;;;2.15;;
29848;SDS011;16728;50.832;5.590;2023-07-13T09:57:26;7.93;;;2.10;;
29848;SDS011;16728;50.832;5.590;2023-07-13T10:00:56;10.52;;;2.00;;
29848;SDS011;16728;50.832;5.590;2023-07-13T10:04:10;5.80;;;2.15;;
29848;SDS011;16728;50.832;5.590;2023-07-13T10:07:14;5.80;;;1.58;;
29848;SDS011;16728;50.832;5.590;2023-07-13T10:10:30;8.50;;;2.25;;
29848;SDS011;16728;50.832;5.590;2023-07-13T10:13:33;8.57;;;2.20;;
29848;SDS011;16728;50.832;5.590;2023-07-13T10:16:38;8.05;;;1.95;;
29848;SDS011;16728;50.832;5.590;2023-07-13T10:19:44;6.95;;;1.95;;
29848;SDS011;16728;50.832;5.590;2023-07-13T10:26:17;8.63;;;2.10;;
29848;SDS011;16728;50.832;5.590;2023-07-13T10:29:26;10.05;;;2.30;;
29848;SDS011;16728;50.832;5.590;2023-07-13T10:32:30;9.68;;;1.85;;
29848;SDS011;16728;50.832;5.590;2023-07-13T10:35:32;5.70;;;1.77;;
29848;SDS011;16728;50.832;5.590;2023-07-13T10:38:35;8.52;;;1.65;;
29848;SDS011;16728;50.832;5.590;2023-07-13T10:41:38;5.38;;;1.48;;
29848;SDS011;16728;50.832;5.590;2023-07-13T10:44:42;7.30;;;1.90;;
29848;SDS011;16728;50.832;5.590;2023-07-13T10:47:44;10.40;;;2.08;;
29848;SDS011;16728;50.832;5.590;2023-07-13T10:50:47;6.97;;;2.17;;
29848;SDS011;16728;50.832;5.590;2023-07-13T10:57:18;7.18;;;1.98;;
29848;SDS011;16728;50.832;5.590;2023-07-13T11:00:23;3.65;;;1.60;;
29848;SDS011;16728;50.832;5.590;2023-07-13T11:03:27;4.47;;;1.60;;
29848;SDS011;16728;50.832;5.590;2023-07-13T11:06:33;6.35;;;1.35;;
29848;SDS011;16728;50.832;5.590;2023-07-13T11:09:42;9.02;;;2.72;;
29848;SDS011;16728;50.832;5.590;2023-07-13T11:12:53;6.13;;;1.60;;
29848;SDS011;16728;50.832;5.590;2023-07-13T11:15:55;4.50;;;1.65;;
29848;SDS011;16728;50.832;5.590;2023-07-13T11:28:31;7.68;;;2.10;;
29848;SDS011;16728;50.832;5.590;2023-07-13T11:34:38;6.22;;;2.10;;
29848;SDS011;16728;50.832;5.590;2023-07-13T11:37:40;6.28;;;1.85;;
29848;SDS011;16728;50.832;5.590;2023-07-13T11:40:43;8.70;;;2.03;;
29848;SDS011;16728;50.832;5.590;2023-07-13T11:44:12;5.63;;;1.90;;
29848;SDS011;16728;50.832;5.590;2023-07-13T11:47:22;5.22;;;1.77;;
29848;SDS011;16728;50.832;5.590;2023-07-13T11:50:27;10.65;;;1.83;;
29848;SDS011;16728;50.832;5.590;2023-07-13T11:53:30;7.72;;;2.00;;
29848;SDS011;16728;50.832;5.590;2023-07-13T11:56:39;7.82;;;2.28;;
29848;SDS011;16728;50.832;5.590;2023-07-13T11:59:42;7.50;;;2.22;;
29848;SDS011;16728;50.832;5.590;2023-07-13T12:02:49;7.57;;;2.15;;
29848;SDS011;16728;50.832;5.590;2023-07-13T12:06:24;5.20;;;1.80;;
29848;SDS011;16728;50.832;5.590;2023-07-13T12:09:33;6.13;;;2.28;;
29848;SDS011;16728;50.832;5.590;2023-07-13T12:12:46;7.78;;;1.88;;
29848;SDS011;16728;50.832;5.590;2023-07-13T12:16:17;5.22;;;1.75;;
29848;SDS011;16728;50.832;5.590;2023-07-13T12:19:27;3.65;;;2.08;;
29848;SDS011;16728;50.832;5.590;2023-07-13T12:22:30;3.13;;;1.30;;
29848;SDS011;16728;50.832;5.590;2023-07-13T12:25:35;3.13;;;1.50;;
29848;SDS011;16728;50.832;5.590;2023-07-13T12:28:38;7.70;;;2.55;;
29848;SDS011;16728;50.832;5.590;2023-07-13T12:31:47;6.55;;;1.90;;
29848;SDS011;16728;50.832;5.590;2023-07-13T12:34:53;5.15;;;1.92;;
29848;SDS011;16728;50.832;5.590;2023-07-13T12:37:57;5.40;;;1.65;;
29848;SDS011;16728;50.832;5.590;2023-07-13T12:41:02;6.20;;;1.70;;
29848;SDS011;16728;50.832;5.590;2023-07-13T12:44:08;4.72;;;1.42;;
29848;SDS011;16728;50.832;5.590;2023-07-13T12:47:14;4.75;;;1.52;;
29848;SDS011;16728;50.832;5.590;2023-07-13T12:50:19;6.47;;;1.70;;
29848;SDS011;16728;50.832;5.590;2023-07-13T12:53:27;3.50;;;1.45;;
29848;SDS011;16728;50.832;5.590;2023-07-13T12:56:34;4.63;;;1.80;;
29848;SDS011;16728;50.832;5.590;2023-07-13T12:59:37;4.13;;;1.35;;
29848;SDS011;16728;50.832;5.590;2023-07-13T13:02:39;5.95;;;1.30;;
29848;SDS011;16728;50.832;5.590;2023-07-13T13:05:41;3.95;;;1.38;;
29848;SDS011;16728;50.832;5.590;2023-07-13T13:08:48;2.95;;;1.27;;
29848;SDS011;16728;50.832;5.590;2023-07-13T13:11:54;5.20;;;1.42;;
29848;SDS011;16728;50.832;5.590;2023-07-13T13:14:56;2.85;;;1.10;;
29848;SDS011;16728;50.832;5.590;2023-07-13T13:17:58;3.50;;;1.10;;
29848;SDS011;16728;50.832;5.590;2023-07-13T13:21:00;3.15;;;1.17;;
29848;SDS011;16728;50.832;5.590;2023-07-13T13:24:04;2.80;;;1.30;;
29848;SDS011;16728;50.832;5.590;2023-07-13T13:27:16;5.00;;;1.15;;
29848;SDS011;16728;50.832;5.590;2023-07-13T13:30:19;3.58;;;0.98;;
29848;SDS011;16728;50.832;5.590;2023-07-13T13:33:23;5.75;;;1.30;;
29848;SDS011;16728;50.832;5.590;2023-07-13T13:36:25;4.47;;;1.20;;
29848;SDS011;16728;50.832;5.590;2023-07-13T13:39:33;3.30;;;1.10;;
29848;SDS011;16728;50.832;5.590;2023-07-13T13:42:36;3.10;;;1.20;;
29848;SDS011;16728;50.832;5.590;2023-07-13T13:45:38;6.25;;;1.30;;
29848;SDS011;16728;50.832;5.590;2023-07-13T13:48:40;3.30;;;1.30;;
29848;SDS011;16728;50.832;5.590;2023-07-13T13:51:43;4.20;;;1.27;;
29848;SDS011;16728;50.832;5.590;2023-07-13T13:54:45;5.10;;;1.50;;
29848;SDS011;16728;50.832;5.590;2023-07-13T13:57:48;3.50;;;1.20;;
29848;SDS011;16728;50.832;5.590;2023-07-13T14:00:50;4.83;;;1.40;;
29848;SDS011;16728;50.832;5.590;2023-07-13T14:03:53;6.20;;;1.42;;
29848;SDS011;16728;50.832;5.590;2023-07-13T14:06:56;3.10;;;1.27;;
29848;SDS011;16728;50.832;5.590;2023-07-13T14:09:58;2.50;;;1.07;;
29848;SDS011;16728;50.832;5.590;2023-07-13T14:16:07;5.35;;;1.50;;
29848;SDS011;16728;50.832;5.590;2023-07-13T14:19:22;3.83;;;1.40;;
29848;SDS011;16728;50.832;5.590;2023-07-13T14:22:25;2.33;;;1.60;;
29848;SDS011;16728;50.832;5.590;2023-07-13T14:25:28;5.82;;;1.60;;
29848;SDS011;16728;50.832;5.590;2023-07-13T14:28:31;4.37;;;1.90;;
29848;SDS011;16728;50.832;5.590;2023-07-13T14:31:33;4.53;;;1.42;;
29848;SDS011;16728;50.832;5.590;2023-07-13T14:34:35;3.60;;;1.50;;
29848;SDS011;16728;50.832;5.590;2023-07-13T14:40:42;4.97;;;1.80;;
29848;SDS011;16728;50.832;5.590;2023-07-13T14:43:44;3.22;;;1.52;;
29848;SDS011;16728;50.832;5.590;2023-07-13T14:46:46;4.82;;;2.10;;
29848;SDS011;16728;50.832;5.590;2023-07-13T14:49:48;4.63;;;1.77;;
29848;SDS011;16728;50.832;5.590;2023-07-13T14:52:51;4.68;;;2.13;;
29848;SDS011;16728;50.832;5.590;2023-07-13T14:55:53;3.97;;;1.63;;
29848;SDS011;16728;50.832;5.590;2023-07-13T14:58:56;3.95;;;1.60;;
29848;SDS011;16728;50.832;5.590;2023-07-13T15:01:58;5.10;;;2.00;;
29848;SDS011;16728;50.832;5.590;2023-07-13T15:05:01;7.53;;;2.30;;
29848;SDS011;16728;50.832;5.590;2023-07-13T15:08:05;7.18;;;2.58;;
29848;SDS011;16728;50.832;5.590;2023-07-13T15:11:07;5.15;;;2.10;;
29848;SDS011;16728;50.832;5.590;2023-07-13T15:14:12;6.00;;;2.00;;
29848;SDS011;16728;50.832;5.590;2023-07-13T15:20:39;3.75;;;1.63;;
29848;SDS011;16728;50.832;5.590;2023-07-13T15:23:41;5.82;;;1.75;;
29848;SDS011;16728;50.832;5.590;2023-07-13T15:26:43;3.13;;;1.33;;
29848;SDS011;16728;50.832;5.590;2023-07-13T15:29:47;2.83;;;1.33;;
29848;SDS011;16728;50.832;5.590;2023-07-13T15:32:49;5.30;;;1.70;;
29848;SDS011;16728;50.832;5.590;2023-07-13T15:35:51;5.35;;;1.70;;
29848;SDS011;16728;50.832;5.590;2023-07-13T15:41:56;2.88;;;1.70;;
29848;SDS011;16728;50.832;5.590;2023-07-13T15:44:58;2.55;;;1.38;;
29848;SDS011;16728;50.832;5.590;2023-07-13T15:48:02;5.40;;;1.63;;
29848;SDS011;16728;50.832;5.590;2023-07-13T15:51:18;4.40;;;1.55;;
29848;SDS011;16728;50.832;5.590;2023-07-13T15:54:29;6.70;;;1.73;;
29848;SDS011;16728;50.832;5.590;2023-07-13T15:57:35;8.27;;;1.80;;
29848;SDS011;16728;50.832;5.590;2023-07-13T16:00:37;2.90;;;1.48;;
29848;SDS011;16728;50.832;5.590;2023-07-13T16:03:43;3.55;;;1.33;;
29848;SDS011;16728;50.832;5.590;2023-07-13T16:06:45;4.25;;;1.42;;
29848;SDS011;16728;50.832;5.590;2023-07-13T16:09:48;4.82;;;1.40;;
29848;SDS011;16728;50.832;5.590;2023-07-13T16:15:53;3.33;;;1.40;;
29848;SDS011;16728;50.832;5.590;2023-07-13T16:18:59;4.63;;;1.60;;
29848;SDS011;16728;50.832;5.590;2023-07-13T16:22:03;3.03;;;1.40;;
29848;SDS011;16728;50.832;5.590;2023-07-13T16:28:22;4.88;;;1.75;;
29848;SDS011;16728;50.832;5.590;2023-07-13T16:31:24;2.85;;;1.52;;
29848;SDS011;16728;50.832;5.590;2023-07-13T16:34:26;3.60;;;1.70;;
29848;SDS011;16728;50.832;5.590;2023-07-13T16:37:29;4.93;;;1.50;;
29848;SDS011;16728;50.832;5.590;2023-07-13T16:40:32;5.57;;;1.90;;
29848;SDS011;16728;50.832;5.590;2023-07-13T16:43:34;4.57;;;2.03;;
29848;SDS011;16728;50.832;5.590;2023-07-13T16:49:57;5.05;;;1.60;;
29848;SDS011;16728;50.832;5.590;2023-07-13T16:52:59;4.03;;;1.52;;
29848;SDS011;16728;50.832;5.590;2023-07-13T16:56:05;3.58;;;1.25;;
29848;SDS011;16728;50.832;5.590;2023-07-13T16:59:19;4.57;;;1.58;;
29848;SDS011;16728;50.832;5.590;2023-07-13T17:05:37;4.07;;;1.90;;
29848;SDS011;16728;50.832;5.590;2023-07-13T17:08:47;3.80;;;1.52;;
29848;SDS011;16728;50.832;5.590;2023-07-13T17:11:49;3.97;;;1.65;;
29848;SDS011;16728;50.832;5.590;2023-07-13T17:14:53;6.03;;;1.50;;
29848;SDS011;16728;50.832;5.590;2023-07-13T17:17:55;6.65;;;1.67;;
29848;SDS011;16728;50.832;5.590;2023-07-13T17:21:13;5.07;;;1.50;;
29848;SDS011;16728;50.832;5.590;2023-07-13T17:24:19;4.10;;;1.63;;
29848;SDS011;16728;50.832;5.590;2023-07-13T17:27:24;2.58;;;1.50;;
29848;SDS011;16728;50.832;5.590;2023-07-13T17:30:27;6.22;;;1.70;;
29848;SDS011;16728;50.832;5.590;2023-07-13T17:33:34;2.17;;;1.20;;
29848;SDS011;16728;50.832;5.590;2023-07-13T17:36:38;4.22;;;1.40;;
29848;SDS011;16728;50.832;5.590;2023-07-13T17:39:41;4.45;;;1.77;;
29848;SDS011;16728;50.832;5.590;2023-07-13T17:42:44;4.78;;;1.50;;
29848;SDS011;16728;50.832;5.590;2023-07-13T17:45:47;5.57;;;1.40;;
29848;SDS011;16728;50.832;5.590;2023-07-13T17:48:50;8.77;;;2.03;;
29848;SDS011;16728;50.832;5.590;2023-07-13T17:51:55;4.07;;;1.58;;
29848;SDS011;16728;50.832;5.590;2023-07-13T17:54:59;1.73;;;1.30;;
29848;SDS011;16728;50.832;5.590;2023-07-13T17:58:04;2.25;;;1.35;;
29848;SDS011;16728;50.832;5.590;2023-07-13T18:01:09;3.72;;;1.50;;
29848;SDS011;16728;50.832;5.590;2023-07-13T18:04:14;3.45;;;1.58;;
29848;SDS011;16728;50.832;5.590;2023-07-13T18:07:18;5.65;;;1.70;;
29848;SDS011;16728;50.832;5.590;2023-07-13T18:10:23;2.88;;;1.15;;
29848;SDS011;16728;50.832;5.590;2023-07-13T18:13:25;2.88;;;1.33;;
29848;SDS011;16728;50.832;5.590;2023-07-13T18:16:29;4.82;;;1.77;;
29848;SDS011;16728;50.832;5.590;2023-07-13T18:19:33;4.18;;;1.55;;
29848;SDS011;16728;50.832;5.590;2023-07-13T18:22:39;3.90;;;1.50;;
29848;SDS011;16728;50.832;5.590;2023-07-13T18:25:41;2.85;;;1.38;;
29848;SDS011;16728;50.832;5.590;2023-07-13T18:28:43;2.85;;;1.35;;
29848;SDS011;16728;50.832;5.590;2023-07-13T18:31:49;3.53;;;1.73;;
29848;SDS011;16728;50.832;5.590;2023-07-13T18:34:51;2.97;;;1.15;;
29848;SDS011;16728;50.832;5.590;2023-07-13T18:37:54;2.80;;;1.55;;
29848;SDS011;16728;50.832;5.590;2023-07-13T18:41:00;2.90;;;1.50;;
29848;SDS011;16728;50.832;5.590;2023-07-13T18:44:02;3.35;;;1.40;;
29848;SDS011;16728;50.832;5.590;2023-07-13T18:47:04;6.93;;;1.98;;
29848;SDS011;16728;50.832;5.590;2023-07-13T18:50:14;2.92;;;1.55;;
29848;SDS011;16728;50.832;5.590;2023-07-13T18:53:38;4.63;;;1.88;;
29848;SDS011;16728;50.832;5.590;2023-07-13T18:56:40;3.70;;;1.42;;
29848;SDS011;16728;50.832;5.590;2023-07-13T18:59:42;4.47;;;1.70;;
29848;SDS011;16728;50.832;5.590;2023-07-13T19:02:44;5.53;;;1.48;;
29848;SDS011;16728;50.832;5.590;2023-07-13T19:05:47;3.10;;;1.58;;
29848;SDS011;16728;50.832;5.590;2023-07-13T19:09:04;2.90;;;1.40;;
29848;SDS011;16728;50.832;5.590;2023-07-13T19:12:19;3.72;;;1.40;;
29848;SDS011;16728;50.832;5.590;2023-07-13T19:15:24;4.37;;;1.60;;
29848;SDS011;16728;50.832;5.590;2023-07-13T19:18:28;6.00;;;1.50;;
29848;SDS011;16728;50.832;5.590;2023-07-13T19:21:34;3.13;;;1.67;;
29848;SDS011;16728;50.832;5.590;2023-07-13T19:24:41;5.07;;;1.80;;
29848;SDS011;16728;50.832;5.590;2023-07-13T19:27:43;3.25;;;1.67;;
29848;SDS011;16728;50.832;5.590;2023-07-13T19:30:44;5.38;;;1.70;;
29848;SDS011;16728;50.832;5.590;2023-07-13T19:33:47;3.72;;;1.80;;
29848;SDS011;16728;50.832;5.590;2023-07-13T19:36:57;5.85;;;1.63;;
29848;SDS011;16728;50.832;5.590;2023-07-13T19:40:36;3.90;;;1.60;;
29848;SDS011;16728;50.832;5.590;2023-07-13T19:43:31;2.58;;;1.48;;